Nautilus — OUYX2 — position and weather

sailwx.info

Track history (hours):
 
Tides and Currents Weather Stations Pressure Air Temp Water Temp Dewpoint Dewpoint Depression Visibility Wind Speed Wind Dir Waves Ship Positions

Nautilus

Last reported at 2015-Mar-27 14:33 UTC. Time now 2015-Mar-29 23:53 UTC.
Position N 56°11' E 012°02'.

Length 120 m; draft 5.1 m.

Type: Ship. MMSI: 219425000.

Date/timePositionNaut miles runAvg speedWind from/ knotsBaromVisibWave heightAir tempDewpointWater temp
2015-Mar-27 14:33N 56°11' E 012°02'1312.8
2015-Mar-27 13:33N 56°10' E 012°25'1413.6
2015-Mar-27 12:33N 55°60' E 012°41'1313.3
2015-Mar-27 11:33N 55°47' E 012°48'1110.8
2015-Mar-27 10:33N 55°37' E 012°53'1212.1
2015-Mar-27 09:33N 55°27' E 012°42'1110.8
2015-Mar-27 08:33N 55°17' E 012°49'1413.8
2015-Mar-27 07:33N 55°15' E 013°14'1413.9
2015-Mar-27 06:34N 55°15' E 013°38'1713.9
2015-Mar-27 05:20N 55°14' E 014°08'1012.4
2015-Mar-27 04:33N 55°18' E 014°22'1313.3
2015-Mar-27 03:33N 55°28' E 014°38'1413.6
2015-Mar-27 02:33N 55°34' E 014°60'1313.2
2015-Mar-27 01:33N 55°41' E 015°20'26 1.3
2015-Mar-26 05:24N 55°57' E 015°57'911.1
2015-Mar-26 04:34N 55°48' E 015°51'1210.5
2015-Mar-26 03:28N 55°42' E 015°34'1011.0
2015-Mar-26 02:33N 55°37' E 015°19'1111.0
2015-Mar-26 01:33N 55°31' E 015°02'1010.2
2015-Mar-26 00:33N 55°27' E 014°46'9 9.4
2015-Mar-25 23:33N 55°21' E 014°33'10 9.9
2015-Mar-25 22:34N 55°13' E 014°22'10 9.5
2015-Mar-25 21:33N 55°10' E 014°06'1010.2
2015-Mar-25 20:33N 55°11' E 013°48'10 9.7
2015-Mar-25 19:32N 55°11' E 013°31'9 9.0
2015-Mar-25 18:32N 55°12' E 013°15'9 9.2
2015-Mar-25 17:33N 55°13' E 012°60'10 9.8
2015-Mar-25 16:34N 55°17' E 012°44'10 9.5
2015-Mar-25 15:33N 55°26' E 012°40'1010.3
2015-Mar-25 14:34N 55°35' E 012°50'8 8.3
2015-Mar-25 13:34N 55°43' E 012°53'1111.2
2015-Mar-25 12:33N 55°52' E 012°42'1110.7
2015-Mar-25 11:34N 56°03' E 012°39'10 9.9
2015-Mar-25 10:34N 56°09' E 012°26'1110.8
2015-Mar-25 09:34N 56°12' E 012°07'1511.3
2015-Mar-25 08:12N 56°08' E 011°40'7 0.1
2015-Mar-23 07:26N 56°10' E 011°53'1112.6
2015-Mar-23 06:33N 56°12' E 012°12'1313.2
2015-Mar-23 05:33N 56°06' E 012°34'1313.5
2015-Mar-23 04:33N 55°54' E 012°45'1312.7
2015-Mar-23 03:33N 55°43' E 012°53'1010.3
2015-Mar-23 02:33N 55°33' E 012°47'1313.1
2015-Mar-23 01:34N 55°21' E 012°40'1211.8
2015-Mar-23 00:33N 55°16' E 012°59'1313.2
2015-Mar-22 23:33N 55°15' E 013°22'1313.2
2015-Mar-22 22:33N 55°14' E 013°46'1313.3
2015-Mar-22 21:33N 55°14' E 014°09'1211.9
2015-Mar-22 20:33N 55°20' E 014°26'1313.1
2015-Mar-22 19:33N 55°29' E 014°43'1313.0
2015-Mar-22 18:33N 55°36' E 015°03'1312.6
2015-Mar-22 17:30N 55°42' E 015°23'11711.8
2015-Mar-22 07:33N 57°16' E 017°32'1313.1
2015-Mar-22 06:33N 57°28' E 017°41'11810.5
2015-Mar-21 19:18N 59°24' E 018°27'6 8.2
2015-Mar-21 18:33N 59°22' E 018°16'4 3.4
2015-Mar-21 17:26N 59°20' E 018°08'0 0.0
2015-Mar-21 16:32N 59°20' E 018°08'0 0.0
2015-Mar-21 15:32N 59°20' E 018°08'0 0.0
2015-Mar-21 14:29N 59°20' E 018°08'0 0.0
2015-Mar-21 13:32N 59°20' E 018°08'0 0.0
2015-Mar-21 12:32N 59°20' E 018°08'0 0.0
2015-Mar-21 11:32N 59°20' E 018°08'0 0.0
2015-Mar-21 10:29N 59°20' E 018°08'0 0.0
2015-Mar-21 09:32N 59°20' E 018°08'0 0.0
2015-Mar-21 08:32N 59°20' E 018°08'0 0.0
2015-Mar-21 07:29N 59°20' E 018°08'4 4.2
2015-Mar-21 06:33N 59°22' E 018°16'6 5.8
2015-Mar-21 05:29N 59°26' E 018°24'12710.6
2015-Mar-20 17:29N 57°21' E 017°43'1213.0
2015-Mar-20 16:33N 57°10' E 017°35'10212.3
2015-Mar-20 08:19N 55°46' E 015°49'1013.3
2015-Mar-20 07:33N 55°42' E 015°34'1312.9
2015-Mar-20 06:34N 55°35' E 015°14'1313.1
2015-Mar-20 05:34N 55°29' E 014°54'1312.7
2015-Mar-20 04:33N 55°22' E 014°35'1312.9
2015-Mar-20 03:33N 55°12' E 014°21'1212.4
2015-Mar-20 02:34N 55°11' E 013°59'1312.8
2015-Mar-20 01:33N 55°11' E 013°37'1312.8
2015-Mar-20 00:33N 55°12' E 013°14'1212.4
2015-Mar-19 23:33N 55°15' E 012°53'1010.4
2015-Mar-19 22:33N 55°21' E 012°39'1212.1
2015-Mar-19 21:33N 55°33' E 012°42'9 9.4
2015-Mar-19 20:33N 55°43' E 012°41'1212.1
2015-Mar-19 19:33N 55°55' E 012°39'1110.8
2015-Mar-19 18:33N 56°05' E 012°35'1111.2
2015-Mar-19 17:33N 56°15' E 012°24'1211.8
2015-Mar-19 16:33N 56°26' E 012°18'1312.5
2015-Mar-19 15:32N 56°38' E 012°11'1313.1
2015-Mar-19 14:32N 56°51' E 012°05'1212.4
2015-Mar-19 13:33N 57°03' E 011°59'1212.2
2015-Mar-19 12:33N 57°14' E 011°52'1212.2
2015-Mar-19 11:33N 57°24' E 011°39'1312.5
2015-Mar-19 10:33N 57°35' E 011°26'1312.7
2015-Mar-19 09:33N 57°47' E 011°21'1312.9
2015-Mar-19 08:33N 57°60' E 011°16'1212.4
2015-Mar-19 07:33N 58°12' E 011°14'1111.1
2015-Mar-19 06:33N 58°21' E 011°25'1 0.7
2015-Mar-19 05:31N 58°21' E 011°26'0 0.0
2015-Mar-19 04:31N 58°21' E 011°26'0 0.0
2015-Mar-19 03:31N 58°21' E 011°26'0 0.0
2015-Mar-19 02:31N 58°21' E 011°26'0 0.0
2015-Mar-19 01:31N 58°21' E 011°26'0 0.0
2015-Mar-19 00:28N 58°21' E 011°26'0 0.0
2015-Mar-18 23:31N 58°21' E 011°26'0 0.0
2015-Mar-18 22:31N 58°21' E 011°26'0 0.0
2015-Mar-18 21:31N 58°21' E 011°26'0 0.0
2015-Mar-18 20:31N 58°21' E 011°26'0 0.0
2015-Mar-18 19:31N 58°21' E 011°26'0 0.0
2015-Mar-18 18:25N 58°21' E 011°26'0 0.0
2015-Mar-18 17:32N 58°21' E 011°26'7 7.2
2015-Mar-18 16:33N 58°17' E 011°16'1212.2
2015-Mar-18 15:33N 58°05' E 011°11'1413.9
2015-Mar-18 14:34N 57°51' E 011°17'1414.2
2015-Mar-18 13:34N 57°37' E 011°22'1414.5
2015-Mar-18 12:34N 57°24' E 011°30'1515.3
2015-Mar-18 11:34N 57°09' E 011°39'1514.9
2015-Mar-18 10:33N 56°55' E 011°47'1313.3
2015-Mar-18 09:33N 56°42' E 011°49'1413.8
2015-Mar-18 08:33N 56°30' E 011°37'  
Track history (hours):
 
Tides and Currents Weather Stations Pressure Air Temp Water Temp Dewpoint Dewpoint Depression Visibility Wind Speed Wind Dir Waves Ship Positions

Nautilus

Last reported at 2015-Mar-27 14:33 UTC. Time now 2015-Mar-29 23:53 UTC.
Position N 56°11' E 012°02'.

Length 120 m; draft 5.1 m.

Type: Ship. MMSI: 219425000.

Date/timePositionNaut miles runAvg speedWind from/ knotsBaromVisibWave heightAir tempDewpointWater temp
2015-Mar-27 14:33N 56°11' E 012°02'1312.8
2015-Mar-27 13:33N 56°10' E 012°25'1413.6
2015-Mar-27 12:33N 55°60' E 012°41'1313.3
2015-Mar-27 11:33N 55°47' E 012°48'1110.8
2015-Mar-27 10:33N 55°37' E 012°53'1212.1
2015-Mar-27 09:33N 55°27' E 012°42'1110.8
2015-Mar-27 08:33N 55°17' E 012°49'1413.8
2015-Mar-27 07:33N 55°15' E 013°14'1413.9
2015-Mar-27 06:34N 55°15' E 013°38'1713.9
2015-Mar-27 05:20N 55°14' E 014°08'1012.4
2015-Mar-27 04:33N 55°18' E 014°22'1313.3
2015-Mar-27 03:33N 55°28' E 014°38'1413.6
2015-Mar-27 02:33N 55°34' E 014°60'1313.2
2015-Mar-27 01:33N 55°41' E 015°20'26 1.3
2015-Mar-26 05:24N 55°57' E 015°57'911.1
2015-Mar-26 04:34N 55°48' E 015°51'1210.5
2015-Mar-26 03:28N 55°42' E 015°34'1011.0
2015-Mar-26 02:33N 55°37' E 015°19'1111.0
2015-Mar-26 01:33N 55°31' E 015°02'1010.2
2015-Mar-26 00:33N 55°27' E 014°46'9 9.4
2015-Mar-25 23:33N 55°21' E 014°33'10 9.9
2015-Mar-25 22:34N 55°13' E 014°22'10 9.5
2015-Mar-25 21:33N 55°10' E 014°06'1010.2
2015-Mar-25 20:33N 55°11' E 013°48'10 9.7
2015-Mar-25 19:32N 55°11' E 013°31'9 9.0
2015-Mar-25 18:32N 55°12' E 013°15'9 9.2
2015-Mar-25 17:33N 55°13' E 012°60'10 9.8
2015-Mar-25 16:34N 55°17' E 012°44'10 9.5
2015-Mar-25 15:33N 55°26' E 012°40'1010.3
2015-Mar-25 14:34N 55°35' E 012°50'8 8.3
2015-Mar-25 13:34N 55°43' E 012°53'1111.2
2015-Mar-25 12:33N 55°52' E 012°42'1110.7
2015-Mar-25 11:34N 56°03' E 012°39'10 9.9
2015-Mar-25 10:34N 56°09' E 012°26'1110.8
2015-Mar-25 09:34N 56°12' E 012°07'1511.3
2015-Mar-25 08:12N 56°08' E 011°40'7 0.1
2015-Mar-23 07:26N 56°10' E 011°53'1112.6
2015-Mar-23 06:33N 56°12' E 012°12'1313.2
2015-Mar-23 05:33N 56°06' E 012°34'1313.5
2015-Mar-23 04:33N 55°54' E 012°45'1312.7
2015-Mar-23 03:33N 55°43' E 012°53'1010.3
2015-Mar-23 02:33N 55°33' E 012°47'1313.1
2015-Mar-23 01:34N 55°21' E 012°40'1211.8
2015-Mar-23 00:33N 55°16' E 012°59'1313.2
2015-Mar-22 23:33N 55°15' E 013°22'1313.2
2015-Mar-22 22:33N 55°14' E 013°46'1313.3
2015-Mar-22 21:33N 55°14' E 014°09'1211.9
2015-Mar-22 20:33N 55°20' E 014°26'1313.1
2015-Mar-22 19:33N 55°29' E 014°43'1313.0
2015-Mar-22 18:33N 55°36' E 015°03'1312.6
2015-Mar-22 17:30N 55°42' E 015°23'11711.8
2015-Mar-22 07:33N 57°16' E 017°32'1313.1
2015-Mar-22 06:33N 57°28' E 017°41'11810.5
2015-Mar-21 19:18N 59°24' E 018°27'6 8.2
2015-Mar-21 18:33N 59°22' E 018°16'4 3.4
2015-Mar-21 17:26N 59°20' E 018°08'0 0.0
2015-Mar-21 16:32N 59°20' E 018°08'0 0.0
2015-Mar-21 15:32N 59°20' E 018°08'0 0.0
2015-Mar-21 14:29N 59°20' E 018°08'0 0.0
2015-Mar-21 13:32N 59°20' E 018°08'0 0.0
2015-Mar-21 12:32N 59°20' E 018°08'0 0.0
2015-Mar-21 11:32N 59°20' E 018°08'0 0.0
2015-Mar-21 10:29N 59°20' E 018°08'0 0.0
2015-Mar-21 09:32N 59°20' E 018°08'0 0.0
2015-Mar-21 08:32N 59°20' E 018°08'0 0.0
2015-Mar-21 07:29N 59°20' E 018°08'4 4.2
2015-Mar-21 06:33N 59°22' E 018°16'6 5.8
2015-Mar-21 05:29N 59°26' E 018°24'12710.6
2015-Mar-20 17:29N 57°21' E 017°43'1213.0
2015-Mar-20 16:33N 57°10' E 017°35'10212.3
2015-Mar-20 08:19N 55°46' E 015°49'1013.3
2015-Mar-20 07:33N 55°42' E 015°34'1312.9
2015-Mar-20 06:34N 55°35' E 015°14'1313.1
2015-Mar-20 05:34N 55°29' E 014°54'1312.7
2015-Mar-20 04:33N 55°22' E 014°35'1312.9
2015-Mar-20 03:33N 55°12' E 014°21'1212.4
2015-Mar-20 02:34N 55°11' E 013°59'1312.8
2015-Mar-20 01:33N 55°11' E 013°37'1312.8
2015-Mar-20 00:33N 55°12' E 013°14'1212.4
2015-Mar-19 23:33N 55°15' E 012°53'1010.4
2015-Mar-19 22:33N 55°21' E 012°39'1212.1
2015-Mar-19 21:33N 55°33' E 012°42'9 9.4
2015-Mar-19 20:33N 55°43' E 012°41'1212.1
2015-Mar-19 19:33N 55°55' E 012°39'1110.8
2015-Mar-19 18:33N 56°05' E 012°35'1111.2
2015-Mar-19 17:33N 56°15' E 012°24'1211.8
2015-Mar-19 16:33N 56°26' E 012°18'1312.5
2015-Mar-19 15:32N 56°38' E 012°11'1313.1
2015-Mar-19 14:32N 56°51' E 012°05'1212.4
2015-Mar-19 13:33N 57°03' E 011°59'1212.2
2015-Mar-19 12:33N 57°14' E 011°52'1212.2
2015-Mar-19 11:33N 57°24' E 011°39'1312.5
2015-Mar-19 10:33N 57°35' E 011°26'1312.7
2015-Mar-19 09:33N 57°47' E 011°21'1312.9
2015-Mar-19 08:33N 57°60' E 011°16'1212.4
2015-Mar-19 07:33N 58°12' E 011°14'1111.1
2015-Mar-19 06:33N 58°21' E 011°25'1 0.7
2015-Mar-19 05:31N 58°21' E 011°26'0 0.0
2015-Mar-19 04:31N 58°21' E 011°26'0 0.0
2015-Mar-19 03:31N 58°21' E 011°26'0 0.0
2015-Mar-19 02:31N 58°21' E 011°26'0 0.0
2015-Mar-19 01:31N 58°21' E 011°26'0 0.0
2015-Mar-19 00:28N 58°21' E 011°26'0 0.0
2015-Mar-18 23:31N 58°21' E 011°26'0 0.0
2015-Mar-18 22:31N 58°21' E 011°26'0 0.0
2015-Mar-18 21:31N 58°21' E 011°26'0 0.0
2015-Mar-18 20:31N 58°21' E 011°26'0 0.0
2015-Mar-18 19:31N 58°21' E 011°26'0 0.0
2015-Mar-18 18:25N 58°21' E 011°26'0 0.0
2015-Mar-18 17:32N 58°21' E 011°26'7 7.2
2015-Mar-18 16:33N 58°17' E 011°16'1212.2
2015-Mar-18 15:33N 58°05' E 011°11'1413.9
2015-Mar-18 14:34N 57°51' E 011°17'1414.2
2015-Mar-18 13:34N 57°37' E 011°22'1414.5
2015-Mar-18 12:34N 57°24' E 011°30'1515.3
2015-Mar-18 11:34N 57°09' E 011°39'1514.9
2015-Mar-18 10:33N 56°55' E 011°47'1313.3
2015-Mar-18 09:33N 56°42' E 011°49'1413.8
2015-Mar-18 08:33N 56°30' E 011°37'  

Dump ship's entire track history